createdAt,value
2017-08-01T00:01:32.200Z,63.40
2017-08-01T00:04:00.114Z,63.30
2017-08-01T00:06:28.590Z,63.10
2017-08-01T00:08:56.121Z,63.00
2017-08-01T00:11:25.136Z,62.40
2017-08-01T00:13:52.900Z,62.50
2017-08-01T00:16:20.567Z,62.70
2017-08-01T00:18:48.842Z,62.20
2017-08-01T00:21:18.048Z,62.10
2017-08-01T00:23:45.666Z,62.10
2017-08-01T00:26:13.943Z,62.20
2017-08-01T00:28:42.249Z,62.50
2017-08-01T00:31:10.146Z,62.50
2017-08-01T00:33:38.157Z,62.40
2017-08-01T00:36:06.435Z,62.80
2017-08-01T00:38:34.340Z,62.70
2017-08-01T00:41:01.862Z,62.90
2017-08-01T00:43:30.634Z,62.50
2017-08-01T00:48:27.035Z,63.00
2017-08-01T00:53:24.264Z,62.80
2017-08-01T00:55:51.987Z,62.80
2017-08-01T00:58:19.488Z,63.00
2017-08-01T01:00:47.106Z,62.90
2017-08-01T01:03:14.607Z,62.60
2017-08-01T01:05:42.138Z,62.90
2017-08-01T01:08:09.671Z,63.10
2017-08-01T01:10:38.170Z,63.10
2017-08-01T01:13:05.821Z,62.90
2017-08-01T01:15:33.322Z,62.60
2017-08-01T01:18:01.330Z,62.70
2017-08-01T01:20:29.604Z,62.50
2017-08-01T01:22:57.524Z,62.60
2017-08-01T01:25:25.031Z,63.10
2017-08-01T01:27:52.554Z,63.10
2017-08-01T01:30:20.063Z,63.20
2017-08-01T01:32:47.708Z,63.40
2017-08-01T01:35:15.201Z,63.50
2017-08-01T01:37:43.478Z,63.30
2017-08-01T01:40:11.090Z,63.40
2017-08-01T01:42:38.591Z,63.70
2017-08-01T01:45:06.890Z,63.80
2017-08-01T01:47:34.462Z,63.80
2017-08-01T01:50:02.122Z,63.90
2017-08-01T01:52:29.795Z,64.10
2017-08-01T01:54:57.715Z,64.20
2017-08-01T01:57:25.986Z,64.80
2017-08-01T01:59:54.294Z,65.00
2017-08-01T02:02:21.801Z,64.30
2017-08-01T02:04:49.327Z,64.40
2017-08-01T02:09:45.726Z,64.20
2017-08-01T02:18:03.840Z,64.20
2017-08-01T02:20:31.374Z,64.40
2017-08-01T02:22:58.887Z,64.60
2017-08-01T02:25:26.693Z,64.40
2017-08-01T02:27:54.195Z,64.20
2017-08-01T02:30:21.735Z,64.20
2017-08-01T02:32:50.011Z,64.10
2017-08-01T02:35:18.287Z,64.10
2017-08-01T02:37:46.232Z,64.20
2017-08-01T02:40:14.281Z,63.90
2017-08-01T02:42:41.808Z,63.90
2017-08-01T02:45:10.632Z,64.30
2017-08-01T02:47:38.280Z,64.10
2017-08-01T02:50:05.795Z,64.30
2017-08-01T02:52:33.706Z,63.60
2017-08-01T02:55:01.216Z,63.60
2017-08-01T02:57:28.837Z,63.60
2017-08-01T02:59:56.370Z,63.40
2017-08-01T03:02:23.870Z,63.10
2017-08-01T03:04:51.899Z,63.10
2017-08-01T03:09:48.451Z,63.00
2017-08-01T03:12:16.354Z,63.10
2017-08-01T03:14:43.960Z,63.00
2017-08-01T03:17:12.226Z,63.10
2017-08-01T03:19:39.842Z,63.40
2017-08-01T03:22:07.359Z,63.30
2017-08-01T03:27:03.758Z,63.00
2017-08-01T03:29:32.043Z,63.60
2017-08-01T03:32:01.062Z,63.10
2017-08-01T03:34:28.964Z,62.80
2017-08-01T03:36:56.534Z,62.90
2017-08-01T03:39:25.186Z,62.60
2017-08-01T03:41:52.911Z,62.50
2017-08-01T03:44:20.581Z,62.60
2017-08-01T03:46:48.230Z,62.70
2017-08-01T03:49:17.334Z,62.60
2017-08-01T03:51:45.260Z,62.70
2017-08-01T03:54:13.535Z,63.90
2017-08-01T03:56:41.851Z,62.80
2017-08-01T03:59:09.375Z,63.00
2017-08-01T04:01:36.902Z,63.10
2017-08-01T04:04:04.427Z,63.10
2017-08-01T04:09:00.811Z,62.90
2017-08-01T04:11:28.335Z,62.90
2017-08-01T04:13:57.014Z,62.80
2017-08-01T04:16:24.514Z,62.80
2017-08-01T04:18:52.827Z,63.40
2017-08-01T04:21:21.100Z,63.00
2017-08-01T04:23:48.616Z,63.20
2017-08-01T04:26:16.151Z,63.50
2017-08-01T04:28:43.648Z,63.70
2017-08-01T04:31:11.199Z,63.80
2017-08-01T04:33:38.721Z,64.10
2017-08-01T04:36:06.252Z,64.10
2017-08-01T04:38:33.764Z,64.10
2017-08-01T04:41:01.674Z,63.90
2017-08-01T04:43:29.960Z,63.80
2017-08-01T04:45:58.256Z,64.00
2017-08-01T04:50:54.672Z,63.40
2017-08-01T04:53:23.338Z,63.40
2017-08-01T04:55:50.850Z,63.90
2017-08-01T04:58:18.379Z,63.90
2017-08-01T05:00:45.878Z,64.40
2017-08-01T05:03:13.394Z,64.60
2017-08-01T05:08:09.773Z,65.00
2017-08-01T05:10:37.270Z,64.90
2017-08-01T05:13:04.792Z,65.00
2017-08-01T05:15:32.287Z,65.00
2017-08-01T05:17:59.819Z,64.90
2017-08-01T05:20:27.315Z,64.60
2017-08-01T05:22:56.332Z,64.40
2017-08-01T05:25:23.982Z,64.10
2017-08-01T05:27:51.683Z,63.90
2017-08-01T05:30:19.319Z,64.00
2017-08-01T05:32:46.831Z,63.80
2017-08-01T05:35:14.363Z,63.60
2017-08-01T05:37:41.893Z,63.50
2017-08-01T05:40:09.426Z,63.10
2017-08-01T05:42:37.694Z,63.80
2017-08-01T05:45:05.626Z,63.50
2017-08-01T05:47:33.126Z,63.20
2017-08-01T05:50:33.943Z,63.10
2017-08-01T05:53:01.852Z,62.70
2017-08-01T05:55:30.532Z,62.10
2017-08-01T05:57:58.037Z,62.70
2017-08-01T06:00:26.723Z,62.00
2017-08-01T06:02:54.995Z,63.00
2017-08-01T06:05:23.636Z,61.60
2017-08-01T06:07:51.257Z,61.30
2017-08-01T06:10:19.164Z,60.70
2017-08-01T06:12:46.690Z,60.60
2017-08-01T06:15:14.199Z,59.60
2017-08-01T06:17:41.727Z,57.90
2017-08-01T06:20:09.246Z,56.80
2017-08-01T06:22:36.770Z,56.10
2017-08-01T06:25:04.332Z,54.70
2017-08-01T06:27:32.323Z,53.70
2017-08-01T06:30:01.345Z,52.20
2017-08-01T06:34:59.245Z,47.80
2017-08-01T06:37:26.754Z,45.50
2017-08-01T06:39:56.016Z,43.60
2017-08-01T06:42:24.710Z,42.10
2017-08-01T06:44:53.372Z,40.30
2017-08-01T06:47:20.879Z,38.60
2017-08-01T06:49:48.411Z,38.20
2017-08-01T06:52:16.683Z,36.80
2017-08-01T06:54:44.210Z,36.30
2017-08-01T06:57:12.128Z,35.00
2017-08-01T06:59:40.119Z,34.80
2017-08-01T07:02:09.212Z,33.80
2017-08-01T07:04:36.723Z,33.70
2017-08-01T07:07:04.258Z,33.70
2017-08-01T07:09:31.768Z,32.80
2017-08-01T07:11:59.327Z,31.70
2017-08-01T07:14:26.835Z,32.90
2017-08-01T07:16:55.123Z,34.20
2017-08-01T07:19:22.644Z,34.10
2017-08-01T07:21:50.172Z,35.70
2017-08-01T07:24:17.695Z,36.80
2017-08-01T07:26:45.246Z,38.50
2017-08-01T07:29:12.747Z,38.10
2017-08-01T07:31:40.261Z,38.70
2017-08-01T07:34:08.198Z,38.40
2017-08-01T07:36:36.476Z,40.40
2017-08-01T07:39:04.415Z,38.40
2017-08-01T07:41:32.547Z,39.50
2017-08-01T07:44:00.488Z,39.30
2017-08-01T07:46:28.769Z,39.60
2017-08-01T07:48:56.699Z,39.80
2017-08-01T07:51:24.983Z,40.20
2017-08-01T07:53:53.666Z,39.40
2017-08-01T07:56:21.945Z,38.50
2017-08-01T07:58:50.215Z,39.30
2017-08-01T08:01:18.127Z,37.90
2017-08-01T08:03:46.772Z,37.10
2017-08-01T08:06:15.821Z,36.60
2017-08-01T08:08:43.323Z,36.30
2017-08-01T08:11:11.599Z,35.80
2017-08-01T08:13:39.871Z,36.40
2017-08-01T08:16:07.399Z,35.90
2017-08-01T08:18:34.963Z,34.00
2017-08-01T08:21:02.494Z,35.60
2017-08-01T08:23:30.759Z,35.50
2017-08-01T08:25:58.262Z,35.10
2017-08-01T08:28:27.295Z,34.10
2017-08-01T08:30:54.804Z,33.70
2017-08-01T08:35:51.960Z,33.50
2017-08-01T08:38:20.247Z,32.80
2017-08-01T08:40:48.151Z,31.00
2017-08-01T08:43:16.807Z,30.00
2017-08-01T08:45:44.321Z,29.80
2017-08-01T08:48:12.255Z,29.20
2017-08-01T08:50:39.746Z,28.50
2017-08-01T08:53:08.399Z,27.70
2017-08-01T08:55:35.942Z,27.30
2017-08-01T08:58:03.444Z,27.50
2017-08-01T09:00:30.978Z,27.50
2017-08-01T09:02:58.870Z,27.40
2017-08-01T09:05:27.184Z,26.30
2017-08-01T09:07:54.682Z,26.80
2017-08-01T09:10:22.284Z,26.40
2017-08-01T09:12:49.806Z,26.50
2017-08-01T09:15:17.694Z,26.50
2017-08-01T09:17:45.230Z,25.70
2017-08-01T09:20:14.248Z,25.60
2017-08-01T09:22:41.779Z,25.70
2017-08-01T09:25:10.425Z,25.30
2017-08-01T09:27:38.710Z,24.90
2017-08-01T09:30:06.611Z,24.80
2017-08-01T09:32:34.134Z,25.30
2017-08-01T09:35:01.628Z,24.90
2017-08-01T09:37:29.549Z,25.00
2017-08-01T09:39:57.068Z,25.70
2017-08-01T09:42:25.363Z,25.40
2017-08-01T09:44:53.256Z,25.50
2017-08-01T09:47:20.764Z,24.30
2017-08-01T09:49:49.061Z,25.20
2017-08-01T09:52:16.582Z,24.60
2017-08-01T09:54:44.110Z,25.60
2017-08-01T09:57:12.014Z,25.00
2017-08-01T09:59:39.546Z,26.30
2017-08-01T10:02:07.047Z,26.70
2017-08-01T10:04:34.571Z,24.60
2017-08-01T10:07:02.080Z,25.00
2017-08-01T10:09:30.358Z,25.00
2017-08-01T10:11:58.631Z,25.90
2017-08-01T10:14:26.166Z,25.90
2017-08-01T10:16:53.683Z,24.90
2017-08-01T10:19:21.584Z,24.10
2017-08-01T10:21:49.112Z,25.80
2017-08-01T10:24:17.747Z,25.00
2017-08-01T10:26:46.411Z,25.30
2017-08-01T10:29:13.924Z,25.60
2017-08-01T10:31:41.469Z,25.40
2017-08-01T10:34:08.970Z,24.20
2017-08-01T10:36:36.498Z,24.60
2017-08-01T10:39:04.075Z,25.10
2017-08-01T10:41:31.617Z,25.70
2017-08-01T10:43:59.135Z,25.10
2017-08-01T10:46:27.041Z,24.10
2017-08-01T10:48:54.567Z,25.40
2017-08-01T10:51:23.212Z,26.80
2017-08-01T10:53:50.742Z,27.70
2017-08-01T10:56:18.243Z,29.20
2017-08-01T10:58:49.986Z,30.00
2017-08-01T11:01:17.489Z,31.20
2017-08-01T11:03:45.403Z,31.60
2017-08-01T11:06:13.322Z,33.20
2017-08-01T11:08:40.883Z,33.60
2017-08-01T11:11:08.381Z,32.80
2017-08-01T11:13:35.926Z,32.90
2017-08-01T11:16:03.419Z,33.10
2017-08-01T11:18:30.914Z,34.40
2017-08-01T11:20:58.441Z,33.20
2017-08-01T11:23:25.947Z,33.90
2017-08-01T11:25:53.487Z,32.60
2017-08-01T11:28:20.990Z,33.50
2017-08-01T11:30:48.932Z,32.60
2017-08-01T11:33:16.438Z,33.60
2017-08-01T11:35:44.065Z,33.30
2017-08-01T11:38:11.562Z,33.30
2017-08-01T11:40:39.081Z,33.90
2017-08-01T11:43:06.575Z,35.30
2017-08-01T11:45:34.504Z,34.20
2017-08-01T11:48:02.011Z,34.90
2017-08-01T11:52:58.383Z,33.50
2017-08-01T11:55:27.035Z,34.00
2017-08-01T11:57:56.066Z,33.70
2017-08-01T12:00:23.567Z,34.40
2017-08-01T12:02:51.126Z,34.40
2017-08-01T12:05:19.399Z,34.90
2017-08-01T12:07:46.915Z,34.80
2017-08-01T12:12:43.331Z,35.30
2017-08-01T12:15:11.976Z,35.50
2017-08-01T12:17:39.518Z,36.60
2017-08-01T12:20:08.162Z,36.40
2017-08-01T12:22:36.475Z,35.80
2017-08-01T12:25:04.370Z,37.10
2017-08-01T12:27:31.864Z,37.00
2017-08-01T12:29:59.391Z,36.10
2017-08-01T12:32:26.887Z,36.20
2017-08-01T12:34:54.807Z,36.10
2017-08-01T12:37:22.708Z,36.20
2017-08-01T12:39:50.233Z,34.80
2017-08-01T12:42:17.735Z,36.20
2017-08-01T12:44:45.262Z,35.60
2017-08-01T12:47:14.278Z,36.50
2017-08-01T12:49:41.811Z,35.80
2017-08-01T12:52:10.079Z,35.60
2017-08-01T12:54:38.394Z,34.10
2017-08-01T12:57:06.302Z,34.80
2017-08-01T12:59:33.831Z,34.40
2017-08-01T13:02:02.511Z,35.30
2017-08-01T13:04:30.034Z,36.70
2017-08-01T13:06:57.569Z,35.90
2017-08-01T13:09:25.850Z,37.10
2017-08-01T13:11:53.389Z,35.50
2017-08-01T13:14:20.927Z,34.50
2017-08-01T13:16:48.444Z,36.70
2017-08-01T13:19:15.947Z,33.60
2017-08-01T13:21:43.502Z,36.30
2017-08-01T13:24:11.775Z,34.30
2017-08-01T13:26:39.303Z,36.60
2017-08-01T13:29:06.818Z,36.00
2017-08-01T13:31:35.090Z,35.40
2017-08-01T13:34:02.634Z,34.90
2017-08-01T13:36:30.157Z,35.10
2017-08-01T13:38:57.701Z,35.30
2017-08-01T13:41:25.980Z,35.20
2017-08-01T13:43:54.266Z,34.90
2017-08-01T13:46:21.786Z,34.80
2017-08-01T13:48:49.318Z,33.90
2017-08-01T13:51:17.215Z,35.90
2017-08-01T13:53:44.736Z,35.40
2017-08-01T13:56:13.755Z,35.60
2017-08-01T13:58:41.259Z,35.10
2017-08-01T14:01:09.940Z,35.50
2017-08-01T14:03:38.219Z,35.00
2017-08-01T14:06:06.142Z,34.80
2017-08-01T14:08:33.646Z,35.50
2017-08-01T14:11:01.181Z,35.10
2017-08-01T14:13:28.699Z,34.40
2017-08-01T14:15:56.222Z,34.30
2017-08-01T14:18:24.875Z,34.70
2017-08-01T14:20:52.804Z,35.40
2017-08-01T14:23:20.327Z,35.90
2017-08-01T14:25:47.887Z,34.40
2017-08-01T14:28:15.384Z,34.60
2017-08-01T14:30:42.892Z,34.10
2017-08-01T14:33:10.420Z,34.10
2017-08-01T14:35:38.372Z,34.90
2017-08-01T14:38:06.658Z,34.40
2017-08-01T14:40:34.943Z,35.40
2017-08-01T14:43:03.248Z,34.80
2017-08-01T14:45:30.755Z,34.30
2017-08-01T14:47:58.679Z,34.30
2017-08-01T14:50:26.185Z,33.60
2017-08-01T14:52:53.712Z,34.80
2017-08-01T14:55:21.223Z,34.00
2017-08-01T14:57:49.120Z,33.90
2017-08-01T15:00:17.419Z,33.60
2017-08-01T15:02:44.918Z,32.50
2017-08-01T15:05:13.590Z,32.20
2017-08-01T15:07:41.869Z,32.00
2017-08-01T15:10:09.803Z,32.40
2017-08-01T15:12:37.306Z,32.20
2017-08-01T15:15:04.938Z,32.50
2017-08-01T15:17:32.447Z,33.00
2017-08-01T15:19:59.993Z,32.40
2017-08-01T15:22:27.495Z,32.80
2017-08-01T15:24:55.387Z,33.80
2017-08-01T15:27:22.974Z,32.60
2017-08-01T15:29:50.500Z,33.70
2017-08-01T15:34:47.191Z,33.80
2017-08-01T15:37:15.121Z,34.00
2017-08-01T15:39:42.620Z,34.20
2017-08-01T15:42:11.678Z,35.00
2017-08-01T15:44:39.198Z,35.30
2017-08-01T15:47:07.850Z,36.60
2017-08-01T15:49:36.116Z,36.40
2017-08-01T15:52:04.201Z,38.40
2017-08-01T15:54:32.474Z,39.10
2017-08-01T15:57:00.405Z,39.10
2017-08-01T15:59:27.910Z,39.40
2017-08-01T16:01:55.434Z,39.10
2017-08-01T16:04:22.949Z,36.40
2017-08-01T16:06:50.467Z,36.80
2017-08-01T16:09:18.000Z,38.00
2017-08-01T16:11:45.499Z,37.40
2017-08-01T16:14:13.433Z,37.10
2017-08-01T16:16:40.952Z,38.10
2017-08-01T16:19:08.479Z,39.30
2017-08-01T16:21:36.756Z,37.40
2017-08-01T16:24:04.291Z,36.40
2017-08-01T16:29:01.078Z,36.20
2017-08-01T16:31:29.352Z,36.10
2017-08-01T16:33:57.291Z,35.50
2017-08-01T16:36:25.187Z,35.40
2017-08-01T16:38:52.714Z,35.30
2017-08-01T16:41:20.239Z,36.00
2017-08-01T16:43:47.767Z,36.50
2017-08-01T16:46:15.738Z,36.60
2017-08-01T16:48:43.258Z,36.30
2017-08-01T16:51:11.915Z,36.40
2017-08-01T16:53:40.187Z,37.10
2017-08-01T16:56:08.473Z,36.60
2017-08-01T16:58:36.747Z,37.50
2017-08-01T17:01:04.289Z,37.30
2017-08-01T17:03:31.791Z,37.80
2017-08-01T17:05:59.347Z,37.40
2017-08-01T17:08:26.850Z,38.80
2017-08-01T17:10:55.517Z,40.20
2017-08-01T17:13:23.428Z,39.90
2017-08-01T17:15:50.989Z,41.10
2017-08-01T17:18:18.511Z,41.40
2017-08-01T17:20:46.014Z,42.10
2017-08-01T17:23:13.538Z,42.20
2017-08-01T17:25:41.815Z,42.80
2017-08-01T17:28:09.739Z,41.40
2017-08-01T17:30:37.258Z,42.00
2017-08-01T17:33:04.884Z,42.80
2017-08-01T17:35:33.203Z,42.20
2017-08-01T17:38:00.868Z,41.80
2017-08-01T17:40:29.143Z,42.70
2017-08-01T17:42:57.428Z,43.60
2017-08-01T17:45:26.062Z,42.20
2017-08-01T17:50:22.447Z,43.30
2017-08-01T17:52:49.943Z,43.50
2017-08-01T17:55:18.244Z,44.30
2017-08-01T17:57:45.759Z,42.90
2017-08-01T18:00:14.050Z,43.30
2017-08-01T18:02:42.329Z,42.80
2017-08-01T18:05:09.859Z,43.60
2017-08-01T18:07:37.754Z,43.80
2017-08-01T18:10:05.288Z,45.90
2017-08-01T18:12:32.839Z,45.90
2017-08-01T18:15:01.513Z,45.80
2017-08-01T18:17:29.011Z,45.50
2017-08-01T18:19:56.551Z,43.50
2017-08-01T18:22:24.062Z,43.70
2017-08-01T18:24:51.586Z,42.30
2017-08-01T18:27:20.219Z,44.20
2017-08-01T18:29:47.733Z,46.40
2017-08-01T18:32:16.419Z,47.40
2017-08-01T18:37:13.563Z,45.70
2017-08-01T18:39:41.827Z,52.20
2017-08-01T18:42:09.355Z,54.50
2017-08-01T18:44:36.856Z,56.70
2017-08-01T18:47:05.151Z,58.00
2017-08-01T18:52:01.524Z,60.00
2017-08-01T18:54:29.052Z,60.30
2017-08-01T18:56:56.607Z,61.60
2017-08-01T18:59:24.135Z,61.50
2017-08-01T19:01:53.048Z,61.40
2017-08-01T19:04:22.052Z,60.20
2017-08-01T19:06:50.345Z,61.20
2017-08-01T19:09:17.860Z,62.40
2017-08-01T19:11:46.143Z,62.80
2017-08-01T19:14:13.658Z,63.20
2017-08-01T19:16:41.215Z,64.00
2017-08-01T19:19:09.945Z,65.30
2017-08-01T19:21:37.520Z,65.50
2017-08-01T19:24:05.877Z,65.70
2017-08-01T19:26:33.388Z,66.40
2017-08-01T19:29:00.935Z,66.90
2017-08-01T19:31:28.828Z,66.20
2017-08-01T19:33:56.685Z,65.70
2017-08-01T19:36:24.960Z,65.30
2017-08-01T19:38:52.468Z,64.80
2017-08-01T19:43:48.868Z,64.70
2017-08-01T19:46:17.899Z,65.20
2017-08-01T19:48:45.408Z,65.10
2017-08-01T19:51:13.026Z,65.30
2017-08-01T19:53:40.535Z,65.50
2017-08-01T20:01:06.632Z,65.20
2017-08-01T20:03:35.635Z,65.00
2017-08-01T20:06:03.160Z,64.50
2017-08-01T20:08:31.431Z,64.70
2017-08-01T20:10:58.954Z,63.80
2017-08-01T20:13:26.485Z,63.70
2017-08-01T20:15:54.003Z,63.90
2017-08-01T20:18:21.502Z,65.00
2017-08-01T20:20:49.569Z,66.00
2017-08-01T20:23:17.924Z,66.30
2017-08-01T20:25:46.248Z,66.00
2017-08-01T20:28:13.804Z,66.00
2017-08-01T20:30:41.308Z,66.70
2017-08-01T20:33:10.361Z,67.00
2017-08-01T20:35:37.994Z,66.70
2017-08-01T20:40:34.424Z,67.10
2017-08-01T20:43:02.018Z,66.30
2017-08-01T20:45:29.635Z,66.90
2017-08-01T20:47:57.540Z,67.20
2017-08-01T20:50:25.164Z,66.80
2017-08-01T20:52:52.818Z,66.90
2017-08-01T20:55:20.489Z,67.60
2017-08-01T20:57:48.151Z,67.70
2017-08-01T21:00:16.059Z,68.00
2017-08-01T21:02:43.570Z,68.40
2017-08-01T21:05:11.110Z,68.20
2017-08-01T21:07:38.617Z,68.20
2017-08-01T21:10:06.914Z,67.70
2017-08-01T21:12:35.319Z,68.00
2017-08-01T21:15:03.227Z,68.80
2017-08-01T21:17:31.057Z,68.80
2017-08-01T21:19:59.330Z,68.80
2017-08-01T21:22:26.878Z,69.00
2017-08-01T21:24:55.499Z,69.50
2017-08-01T21:27:23.125Z,69.60
2017-08-01T21:29:50.767Z,69.70
2017-08-01T21:32:19.884Z,69.50
2017-08-01T21:34:48.159Z,69.70
2017-08-01T21:37:15.782Z,69.80
2017-08-01T21:39:44.415Z,69.60
2017-08-01T21:42:12.031Z,69.30
2017-08-01T21:44:39.593Z,69.20
2017-08-01T21:47:07.121Z,69.60
2017-08-01T21:49:35.390Z,70.10
2017-08-01T21:52:03.805Z,70.10
2017-08-01T21:54:31.469Z,69.40
2017-08-01T21:56:59.016Z,69.20
2017-08-01T21:59:26.670Z,69.20
2017-08-01T22:04:23.138Z,68.70
2017-08-01T22:06:50.643Z,68.80
2017-08-01T22:09:19.048Z,69.80
2017-08-01T22:11:46.702Z,69.30
2017-08-01T22:14:14.366Z,69.00
2017-08-01T22:16:42.650Z,68.60
2017-08-01T22:19:10.315Z,69.10
2017-08-01T22:21:37.970Z,69.30
2017-08-01T22:24:05.523Z,69.40
2017-08-01T22:26:33.802Z,69.30
2017-08-01T22:29:01.354Z,69.50
2017-08-01T22:31:29.826Z,69.30
2017-08-01T22:33:57.335Z,69.60
2017-08-01T22:36:25.628Z,69.90
2017-08-01T22:38:53.890Z,71.00
2017-08-01T22:43:51.220Z,70.00
2017-08-01T22:46:18.759Z,69.40
2017-08-01T22:48:46.282Z,69.30
2017-08-01T22:51:13.968Z,69.40
2017-08-01T22:53:41.466Z,69.60
2017-08-01T22:56:09.487Z,69.70
2017-08-01T23:01:06.852Z,69.90
2017-08-01T23:03:34.358Z,69.90
2017-08-01T23:06:01.857Z,70.00
2017-08-01T23:08:30.186Z,70.10
2017-08-01T23:10:58.463Z,70.00
2017-08-01T23:13:26.380Z,69.90
2017-08-01T23:15:54.002Z,69.90
2017-08-01T23:18:22.306Z,70.30
2017-08-01T23:20:49.954Z,70.50
2017-08-01T23:23:17.618Z,70.50
2017-08-01T23:25:45.152Z,70.40
2017-08-01T23:28:12.695Z,70.10
2017-08-01T23:30:40.203Z,70.10
2017-08-01T23:33:07.854Z,70.40
2017-08-01T23:35:35.922Z,70.40
2017-08-01T23:38:04.212Z,70.10
2017-08-01T23:40:32.514Z,70.30
2017-08-01T23:43:00.115Z,70.30
2017-08-01T23:45:28.407Z,70.30
2017-08-01T23:47:55.927Z,70.40
2017-08-01T23:50:23.672Z,70.60
2017-08-01T23:52:51.310Z,70.80
2017-08-01T23:55:18.934Z,71.00
2017-08-01T23:57:46.449Z,70.90
